Time,TemperatureF,DewpointF,PressureIn,WindDirection,WindDirectionDegrees,WindSpeedMPH,WindSpeedGustMPH,Humidity,HourlyPrecipIn,Conditions,Clouds,dailyrainin,SoftwareType,DateUTC
2015-03-06 02:21:00,60.0,7.0,30.15,SSE,166,2.0,8.0,12,0.00,,,0.00,,2015-03-06 09:21:00,
2015-03-06 02:42:00,56.0,16.0,30.16,SW,236,1.0,6.0,20,0.00,,,0.00,,2015-03-06 09:42:00,
2015-03-06 02:53:00,57.0,10.0,30.15,SSE,158,1.0,4.0,15,0.00,,,0.00,,2015-03-06 09:53:00,
2015-03-06 03:13:00,58.0,9.0,30.15,SSE,161,2.0,4.0,14,0.00,,,0.00,,2015-03-06 10:13:00,
2015-03-06 03:23:00,59.0,10.0,30.14,SSE,147,3.0,8.0,14,0.00,,,0.00,,2015-03-06 10:23:00,
2015-03-06 03:43:00,59.0,10.0,30.14,SSW,194,2.0,7.0,14,0.00,,,0.00,,2015-03-06 10:43:00,
2015-03-06 03:53:00,59.0,11.0,30.14,SSW,204,1.0,7.0,15,0.00,,,0.00,,2015-03-06 10:53:00,
2015-03-06 04:12:00,57.0,11.0,30.13,SSE,153,1.0,5.0,16,0.00,,,0.00,,2015-03-06 11:12:00,
2015-03-06 04:22:00,58.0,12.0,30.12,SSE,158,1.0,5.0,16,0.00,,,0.00,,2015-03-06 11:22:00,
2015-03-06 04:42:00,58.0,11.0,30.12,SE,136,4.0,7.0,15,0.00,,,0.00,,2015-03-06 11:42:00,
2015-03-06 04:52:00,58.0,12.0,30.12,SSE,167,2.0,6.0,16,0.00,,,0.00,,2015-03-06 11:52:00,
2015-03-06 05:12:00,58.0,12.0,30.12,SE,142,2.0,6.0,16,0.00,,,0.00,,2015-03-06 12:12:00,
2015-03-06 05:22:00,58.0,13.0,30.13,SE,135,2.0,6.0,17,0.00,,,0.00,,2015-03-06 12:22:00,
2015-03-06 05:42:00,57.0,13.0,30.13,SSW,194,3.0,8.0,17,0.00,,,0.00,,2015-03-06 12:42:00,
2015-03-06 05:52:00,57.0,13.0,30.13,SSE,156,4.0,10.0,17,0.00,,,0.00,,2015-03-06 12:52:00,
2015-03-06 06:12:00,57.0,13.0,30.13,SSE,158,2.0,7.0,17,0.00,,,0.00,,2015-03-06 13:12:00,
2015-03-06 06:22:00,57.0,13.0,30.13,SE,137,3.0,8.0,17,0.00,,,0.00,,2015-03-06 13:22:00,
2015-03-06 06:42:00,57.0,14.0,30.13,South,189,3.0,7.0,18,0.00,,,0.00,,2015-03-06 13:42:00,
2015-03-06 06:52:00,58.0,15.0,30.13,SSE,162,3.0,8.0,18,0.00,,,0.00,,2015-03-06 13:52:00,
2015-03-06 07:12:00,58.0,13.0,30.14,South,169,3.0,8.0,17,0.00,,,0.00,,2015-03-06 14:12:00,
2015-03-06 07:22:00,58.0,13.0,30.13,SSE,167,3.0,9.0,17,0.00,,,0.00,,2015-03-06 14:22:00,
2015-03-06 07:42:00,57.0,15.0,30.14,SSW,193,3.0,8.0,19,0.00,,,0.00,,2015-03-06 14:42:00,
2015-03-06 07:52:00,58.0,16.0,30.14,SE,131,1.0,6.0,19,0.00,,,0.00,,2015-03-06 14:52:00,
2015-03-06 08:11:00,58.0,16.0,30.14,South,174,3.0,7.0,19,0.00,,,0.00,,2015-03-06 15:11:00,
2015-03-06 08:22:00,60.0,16.0,30.14,South,186,4.0,10.0,18,0.00,,,0.00,,2015-03-06 15:22:00,
2015-03-06 08:43:00,61.0,16.0,30.14,South,176,4.0,10.0,17,0.00,,,0.00,,2015-03-06 15:43:00,
2015-03-06 08:54:00,62.0,17.0,30.15,ESE,118,5.0,11.0,17,0.00,,,0.00,,2015-03-06 15:54:00,
2015-03-06 09:12:00,62.0,18.0,30.14,SSW,205,4.0,12.0,18,0.00,,,0.00,,2015-03-06 16:12:00,
2015-03-06 09:23:00,62.0,18.0,30.14,SSW,205,4.0,12.0,18,0.00,,,0.00,,2015-03-06 16:23:00,
2015-03-06 09:43:00,64.0,18.0,30.14,SSW,200,5.0,12.0,17,0.00,,,0.00,,2015-03-06 16:43:00,
2015-03-06 09:53:00,64.0,18.0,30.14,SE,127,6.0,13.0,17,0.00,,,0.00,,2015-03-06 16:53:00,
2015-03-06 10:12:00,65.0,20.0,30.13,SSE,147,3.0,16.0,18,0.00,,,0.00,,2015-03-06 17:12:00,
2015-03-06 10:22:00,66.0,20.0,30.14,South,172,3.0,10.0,17,0.00,,,0.00,,2015-03-06 17:22:00,
2015-03-06 10:43:00,67.0,21.0,30.14,SSE,157,2.0,6.0,17,0.00,,,0.00,,2015-03-06 17:43:00,
2015-03-06 10:52:00,69.0,18.0,30.13,SW,214,5.0,11.0,14,0.00,,,0.00,,2015-03-06 17:52:00,
2015-03-06 11:13:00,70.0,17.0,30.13,SE,146,4.0,12.0,13,0.00,,,0.00,,2015-03-06 18:13:00,
2015-03-06 11:22:00,71.0,19.0,30.12,SW,214,4.0,13.0,14,0.00,,,0.00,,2015-03-06 18:22:00,
2015-03-06 11:43:00,71.0,18.0,30.12,SSE,165,3.0,12.0,13,0.00,,,0.00,,2015-03-06 18:43:00,
2015-03-06 11:53:00,73.0,15.0,30.11,SSW,207,6.0,11.0,11,0.00,,,0.00,,2015-03-06 18:53:00,
2015-03-06 12:12:00,74.0,16.0,30.11,WSW,254,5.0,13.0,11,0.00,,,0.00,,2015-03-06 19:12:00,
2015-03-06 12:23:00,74.0,14.0,30.10,SW,225,6.0,11.0,10,0.00,,,0.00,,2015-03-06 19:23:00,
2015-03-06 12:43:00,75.0,15.0,30.09,SW,230,5.0,11.0,10,0.00,,,0.00,,2015-03-06 19:43:00,
2015-03-06 12:52:00,75.0,12.0,30.09,SSW,200,5.0,13.0,9,0.00,,,0.00,,2015-03-06 19:52:00,
2015-03-06 13:11:00,75.0,12.0,30.08,SSW,205,6.0,13.0,9,0.00,,,0.00,,2015-03-06 20:11:00,
2015-03-06 13:21:00,76.0,13.0,30.06,SSW,212,5.0,12.0,9,0.00,,,0.00,,2015-03-06 20:21:00,
2015-03-06 13:41:00,77.0,14.0,30.06,WSW,245,6.0,12.0,9,0.00,,,0.00,,2015-03-06 20:41:00,
2015-03-06 13:52:00,77.0,16.0,30.05,SW,219,6.0,16.0,10,0.00,,,0.00,,2015-03-06 20:52:00,
2015-03-06 14:12:00,77.0,11.0,30.04,WSW,255,7.0,14.0,8,0.00,,,0.00,,2015-03-06 21:12:00,
2015-03-06 14:22:00,77.0,11.0,30.03,SW,229,7.0,15.0,8,0.00,,,0.00,,2015-03-06 21:22:00,
2015-03-06 14:43:00,77.0,11.0,30.02,WSW,243,6.0,16.0,8,0.00,,,0.00,,2015-03-06 21:43:00,